sensor_id;sensor_type;location;lat;lon;timestamp;pressure;altitude;pressure_sealevel;temperature;humidity
64115;BME280;62188;35.640;139.748;2023-01-16T00:00:24;100801.49;;;13.33;44.35
64115;BME280;62188;35.640;139.748;2023-01-16T00:02:48;100801.58;;;13.35;43.46
64115;BME280;62188;35.640;139.748;2023-01-16T00:05:14;100809.38;;;13.32;42.65
64115;BME280;62188;35.640;139.748;2023-01-16T00:07:40;100821.52;;;13.20;42.45
64115;BME280;62188;35.640;139.748;2023-01-16T00:10:06;100822.01;;;13.43;42.32
64115;BME280;62188;35.640;139.748;2023-01-16T00:12:31;100824.63;;;13.14;42.21
64115;BME280;62188;35.640;139.748;2023-01-16T00:14:57;100821.69;;;13.35;43.15
64115;BME280;62188;35.640;139.748;2023-01-16T00:17:22;100830.51;;;13.37;42.67
64115;BME280;62188;35.640;139.748;2023-01-16T00:19:48;100835.38;;;13.10;43.16
64115;BME280;62188;35.640;139.748;2023-01-16T00:22:13;100836.09;;;13.33;43.27
64115;BME280;62188;35.640;139.748;2023-01-16T00:24:40;100840.32;;;13.35;42.99
64115;BME280;62188;35.640;139.748;2023-01-16T00:27:04;100839.35;;;13.36;43.49
64115;BME280;62188;35.640;139.748;2023-01-16T00:29:30;100838.37;;;13.52;43.59
64115;BME280;62188;35.640;139.748;2023-01-16T00:31:56;100841.12;;;12.96;43.24
64115;BME280;62188;35.640;139.748;2023-01-16T00:34:22;100843.11;;;13.18;42.85
64115;BME280;62188;35.640;139.748;2023-01-16T00:36:47;100842.43;;;13.11;43.09
64115;BME280;62188;35.640;139.748;2023-01-16T00:39:13;100844.73;;;13.16;43.35
64115;BME280;62188;35.640;139.748;2023-01-16T00:41:38;100836.52;;;13.00;43.17
64115;BME280;62188;35.640;139.748;2023-01-16T00:44:04;100837.55;;;12.70;43.59
64115;BME280;62188;35.640;139.748;2023-01-16T00:46:29;100845.68;;;12.74;43.87
64115;BME280;62188;35.640;139.748;2023-01-16T00:48:55;100850.25;;;12.58;43.92
64115;BME280;62188;35.640;139.748;2023-01-16T00:51:20;100850.54;;;12.54;44.04
64115;BME280;62188;35.640;139.748;2023-01-16T00:53:45;100846.19;;;12.47;44.35
64115;BME280;62188;35.640;139.748;2023-01-16T00:56:11;100845.44;;;12.66;44.76
64115;BME280;62188;35.640;139.748;2023-01-16T00:58:37;100842.01;;;12.61;44.88
64115;BME280;62188;35.640;139.748;2023-01-16T01:01:02;100839.70;;;12.58;45.25
64115;BME280;62188;35.640;139.748;2023-01-16T01:03:29;100842.19;;;12.47;45.25
64115;BME280;62188;35.640;139.748;2023-01-16T01:05:54;100841.83;;;12.41;45.05
64115;BME280;62188;35.640;139.748;2023-01-16T01:08:18;100829.34;;;12.74;45.29
64115;BME280;62188;35.640;139.748;2023-01-16T01:10:44;100825.58;;;12.69;45.02
64115;BME280;62188;35.640;139.748;2023-01-16T01:13:10;100833.59;;;12.71;45.26
64115;BME280;62188;35.640;139.748;2023-01-16T01:15:35;100836.21;;;12.67;44.42
64115;BME280;62188;35.640;139.748;2023-01-16T01:18:00;100848.25;;;12.41;44.57
64115;BME280;62188;35.640;139.748;2023-01-16T01:20:25;100846.41;;;12.54;44.57
64115;BME280;62188;35.640;139.748;2023-01-16T01:22:51;100845.48;;;12.52;44.62
64115;BME280;62188;35.640;139.748;2023-01-16T01:25:17;100844.53;;;12.52;44.47
64115;BME280;62188;35.640;139.748;2023-01-16T01:27:43;100843.62;;;12.46;44.55
64115;BME280;62188;35.640;139.748;2023-01-16T01:30:09;100842.43;;;12.46;44.87
64115;BME280;62188;35.640;139.748;2023-01-16T01:32:34;100835.16;;;12.45;44.63
64115;BME280;62188;35.640;139.748;2023-01-16T01:34:59;100831.57;;;12.64;44.87
64115;BME280;62188;35.640;139.748;2023-01-16T01:37:26;100828.70;;;12.39;44.73
64115;BME280;62188;35.640;139.748;2023-01-16T01:39:50;100825.47;;;12.44;44.89
64115;BME280;62188;35.640;139.748;2023-01-16T01:42:16;100818.45;;;12.55;44.92
64115;BME280;62188;35.640;139.748;2023-01-16T01:44:50;100816.82;;;12.83;44.86
64115;BME280;62188;35.640;139.748;2023-01-16T01:47:08;100819.22;;;12.43;44.75
64115;BME280;62188;35.640;139.748;2023-01-16T01:49:33;100823.12;;;12.82;44.73
64115;BME280;62188;35.640;139.748;2023-01-16T01:52:02;100824.86;;;12.87;44.44
64115;BME280;62188;35.640;139.748;2023-01-16T01:54:26;100821.38;;;12.75;44.46
64115;BME280;62188;35.640;139.748;2023-01-16T01:56:53;100819.68;;;12.71;43.75
64115;BME280;62188;35.640;139.748;2023-01-16T01:59:20;100813.67;;;13.17;43.84
64115;BME280;62188;35.640;139.748;2023-01-16T02:01:41;100811.26;;;12.92;43.71
64115;BME280;62188;35.640;139.748;2023-01-16T02:04:12;100801.43;;;12.82;43.36
64115;BME280;62188;35.640;139.748;2023-01-16T02:06:37;100801.69;;;12.51;43.85
64115;BME280;62188;35.640;139.748;2023-01-16T02:08:58;100807.11;;;12.45;43.70
64115;BME280;62188;35.640;139.748;2023-01-16T02:11:29;100804.22;;;12.49;43.85
64115;BME280;62188;35.640;139.748;2023-01-16T02:13:49;100794.11;;;12.50;43.70
64115;BME280;62188;35.640;139.748;2023-01-16T02:16:15;100787.26;;;12.84;43.65
64115;BME280;62188;35.640;139.748;2023-01-16T02:18:41;100781.41;;;12.78;43.62
64115;BME280;62188;35.640;139.748;2023-01-16T02:21:14;100777.68;;;12.87;43.51
64115;BME280;62188;35.640;139.748;2023-01-16T02:33:18;100763.57;;;12.70;43.68
64115;BME280;62188;35.640;139.748;2023-01-16T02:35:51;100757.33;;;12.88;43.67
64115;BME280;62188;35.640;139.748;2023-01-16T02:38:12;100761.49;;;12.84;43.64
64115;BME280;62188;35.640;139.748;2023-01-16T02:40:39;100761.97;;;12.92;43.82
64115;BME280;62188;35.640;139.748;2023-01-16T02:43:05;100757.81;;;12.73;43.82
64115;BME280;62188;35.640;139.748;2023-01-16T02:45:28;100758.02;;;12.91;43.43
64115;BME280;62188;35.640;139.748;2023-01-16T02:47:55;100750.09;;;12.88;43.42
64115;BME280;62188;35.640;139.748;2023-01-16T02:50:19;100754.19;;;12.87;43.89
64115;BME280;62188;35.640;139.748;2023-01-16T02:52:43;100758.31;;;12.88;43.74
64115;BME280;62188;35.640;139.748;2023-01-16T02:55:10;100752.17;;;12.73;43.91
64115;BME280;62188;35.640;139.748;2023-01-16T02:57:34;100752.63;;;12.76;43.78
64115;BME280;62188;35.640;139.748;2023-01-16T02:59:56;100753.61;;;12.78;43.77
64115;BME280;62188;35.640;139.748;2023-01-16T03:02:22;100749.86;;;12.79;43.99
64115;BME280;62188;35.640;139.748;2023-01-16T03:04:49;100742.60;;;13.02;43.78
64115;BME280;62188;35.640;139.748;2023-01-16T03:07:21;100745.06;;;12.71;44.12
64115;BME280;62188;35.640;139.748;2023-01-16T03:09:43;100745.00;;;12.78;43.57
64115;BME280;62188;35.640;139.748;2023-01-16T03:12:17;100740.40;;;12.70;43.65
64115;BME280;62188;35.640;139.748;2023-01-16T03:14:36;100738.66;;;12.40;43.66
64115;BME280;62188;35.640;139.748;2023-01-16T03:17:10;100740.27;;;12.03;43.91
64115;BME280;62188;35.640;139.748;2023-01-16T03:19:31;100746.99;;;12.28;44.12
64115;BME280;62188;35.640;139.748;2023-01-16T03:21:56;100746.75;;;12.31;44.09
64115;BME280;62188;35.640;139.748;2023-01-16T03:24:19;100744.31;;;12.28;44.70
64115;BME280;62188;35.640;139.748;2023-01-16T03:26:43;100747.61;;;12.33;44.76
64115;BME280;62188;35.640;139.748;2023-01-16T03:29:10;100746.86;;;12.33;44.83
64115;BME280;62188;35.640;139.748;2023-01-16T03:31:33;100747.76;;;12.31;44.27
64115;BME280;62188;35.640;139.748;2023-01-16T03:33:58;100752.11;;;12.41;44.77
64115;BME280;62188;35.640;139.748;2023-01-16T03:36:26;100751.27;;;12.07;45.06
64115;BME280;62188;35.640;139.748;2023-01-16T03:38:49;100745.85;;;12.28;44.94
64115;BME280;62188;35.640;139.748;2023-01-16T03:41:16;100748.79;;;12.08;44.43
64115;BME280;62188;35.640;139.748;2023-01-16T03:43:39;100745.65;;;12.45;44.42
64115;BME280;62188;35.640;139.748;2023-01-16T03:46:07;100752.16;;;12.41;44.03
64115;BME280;62188;35.640;139.748;2023-01-16T03:48:34;100752.02;;;11.86;44.07
64115;BME280;62188;35.640;139.748;2023-01-16T03:51:00;100756.90;;;12.18;44.13
64115;BME280;62188;35.640;139.748;2023-01-16T03:53:23;100755.11;;;12.08;43.58
64115;BME280;62188;35.640;139.748;2023-01-16T03:55:53;100760.19;;;12.05;43.63
64115;BME280;62188;35.640;139.748;2023-01-16T03:58:18;100761.43;;;11.81;44.19
64115;BME280;62188;35.640;139.748;2023-01-16T04:00:43;100763.71;;;11.81;43.28
64115;BME280;62188;35.640;139.748;2023-01-16T04:03:08;100761.08;;;11.96;43.28
64115;BME280;62188;35.640;139.748;2023-01-16T04:05:33;100758.74;;;11.79;43.76
64115;BME280;62188;35.640;139.748;2023-01-16T04:07:59;100760.45;;;11.77;43.97
64115;BME280;62188;35.640;139.748;2023-01-16T04:10:24;100758.58;;;11.92;43.40
64115;BME280;62188;35.640;139.748;2023-01-16T04:12:50;100760.03;;;11.95;43.23
64115;BME280;62188;35.640;139.748;2023-01-16T04:15:12;100778.56;;;11.81;43.59
64115;BME280;62188;35.640;139.748;2023-01-16T04:17:39;100779.36;;;11.78;43.36
64115;BME280;62188;35.640;139.748;2023-01-16T04:20:07;100781.54;;;11.34;43.01
64115;BME280;62188;35.640;139.748;2023-01-16T04:22:30;100775.24;;;11.41;43.68
64115;BME280;62188;35.640;139.748;2023-01-16T04:25:01;100771.45;;;11.47;43.74
64115;BME280;62188;35.640;139.748;2023-01-16T04:27:21;100778.85;;;11.75;43.75
64115;BME280;62188;35.640;139.748;2023-01-16T04:29:46;100785.23;;;11.60;43.55
64115;BME280;62188;35.640;139.748;2023-01-16T04:32:13;100788.94;;;11.68;43.20
64115;BME280;62188;35.640;139.748;2023-01-16T04:34:38;100801.24;;;11.70;43.57
64115;BME280;62188;35.640;139.748;2023-01-16T04:37:03;100805.99;;;11.53;43.76
64115;BME280;62188;35.640;139.748;2023-01-16T04:39:29;100806.27;;;11.63;43.80
64115;BME280;62188;35.640;139.748;2023-01-16T04:41:55;100803.63;;;11.57;43.92
64115;BME280;62188;35.640;139.748;2023-01-16T04:44:20;100803.85;;;11.83;44.37
64115;BME280;62188;35.640;139.748;2023-01-16T04:46:46;100803.10;;;11.68;44.63
64115;BME280;62188;35.640;139.748;2023-01-16T04:49:12;100806.12;;;11.82;44.65
64115;BME280;62188;35.640;139.748;2023-01-16T04:51:38;100800.07;;;11.77;44.22
64115;BME280;62188;35.640;139.748;2023-01-16T04:54:04;100805.22;;;11.77;44.57
64115;BME280;62188;35.640;139.748;2023-01-16T04:56:28;100812.38;;;11.69;44.47
64115;BME280;62188;35.640;139.748;2023-01-16T04:58:54;100817.83;;;12.09;44.53
64115;BME280;62188;35.640;139.748;2023-01-16T05:01:20;100819.28;;;12.19;44.41
64115;BME280;62188;35.640;139.748;2023-01-16T05:03:47;100817.62;;;12.35;44.44
64115;BME280;62188;35.640;139.748;2023-01-16T05:06:11;100824.07;;;12.47;44.36
64115;BME280;62188;35.640;139.748;2023-01-16T05:08:39;100825.87;;;12.25;44.09
64115;BME280;62188;35.640;139.748;2023-01-16T05:11:03;100835.47;;;12.25;43.77
64115;BME280;62188;35.640;139.748;2023-01-16T05:13:28;100839.43;;;12.22;44.01
64115;BME280;62188;35.640;139.748;2023-01-16T05:15:54;100843.02;;;12.57;44.08
64115;BME280;62188;35.640;139.748;2023-01-16T05:18:20;100843.30;;;12.40;43.74
64115;BME280;62188;35.640;139.748;2023-01-16T05:20:45;100848.07;;;12.46;43.55
64115;BME280;62188;35.640;139.748;2023-01-16T05:23:10;100859.51;;;12.44;43.40
64115;BME280;62188;35.640;139.748;2023-01-16T05:25:36;100863.34;;;12.40;43.70
64115;BME280;62188;35.640;139.748;2023-01-16T05:28:02;100868.66;;;12.33;43.39
64115;BME280;62188;35.640;139.748;2023-01-16T05:30:28;100869.98;;;12.07;43.26
64115;BME280;62188;35.640;139.748;2023-01-16T05:32:53;100872.43;;;12.36;43.88
64115;BME280;62188;35.640;139.748;2023-01-16T05:35:19;100873.90;;;12.40;43.60
64115;BME280;62188;35.640;139.748;2023-01-16T05:37:45;100884.29;;;12.41;43.51
64115;BME280;62188;35.640;139.748;2023-01-16T05:40:12;100886.38;;;12.43;43.55
64115;BME280;62188;35.640;139.748;2023-01-16T05:42:36;100888.43;;;12.52;43.66
64115;BME280;62188;35.640;139.748;2023-01-16T05:45:02;100893.06;;;12.36;43.48
64115;BME280;62188;35.640;139.748;2023-01-16T05:47:27;100899.02;;;12.58;42.94
64115;BME280;62188;35.640;139.748;2023-01-16T05:49:54;100904.69;;;12.50;43.12
64115;BME280;62188;35.640;139.748;2023-01-16T05:52:19;100902.29;;;12.80;43.09
64115;BME280;62188;35.640;139.748;2023-01-16T05:54:45;100905.57;;;12.33;42.81
64115;BME280;62188;35.640;139.748;2023-01-16T05:57:10;100911.80;;;12.60;43.00
64115;BME280;62188;35.640;139.748;2023-01-16T05:59:36;100917.32;;;12.58;42.72
64115;BME280;62188;35.640;139.748;2023-01-16T06:02:02;100914.91;;;12.33;42.93
64115;BME280;62188;35.640;139.748;2023-01-16T06:04:27;100919.13;;;12.58;42.67
64115;BME280;62188;35.640;139.748;2023-01-16T06:06:52;100920.78;;;12.40;42.71
64115;BME280;62188;35.640;139.748;2023-01-16T06:09:18;100924.86;;;12.69;42.68
64115;BME280;62188;35.640;139.748;2023-01-16T06:11:44;100925.67;;;12.37;42.42
64115;BME280;62188;35.640;139.748;2023-01-16T06:14:11;100927.51;;;12.57;42.06
64115;BME280;62188;35.640;139.748;2023-01-16T06:16:36;100925.43;;;12.36;41.99
64115;BME280;62188;35.640;139.748;2023-01-16T06:19:02;100923.35;;;12.39;42.48
64115;BME280;62188;35.640;139.748;2023-01-16T06:21:27;100924.94;;;12.39;42.94
64115;BME280;62188;35.640;139.748;2023-01-16T06:23:52;100934.86;;;12.53;42.50
64115;BME280;62188;35.640;139.748;2023-01-16T06:26:18;100947.87;;;12.12;42.75
64115;BME280;62188;35.640;139.748;2023-01-16T06:28:44;100959.61;;;11.84;42.23
64115;BME280;62188;35.640;139.748;2023-01-16T06:31:10;100963.46;;;12.00;42.57
64115;BME280;62188;35.640;139.748;2023-01-16T06:33:35;100966.54;;;11.60;42.86
64115;BME280;62188;35.640;139.748;2023-01-16T06:36:01;100970.75;;;11.86;43.11
64115;BME280;62188;35.640;139.748;2023-01-16T06:38:26;100978.10;;;11.95;43.22
64115;BME280;62188;35.640;139.748;2023-01-16T06:40:52;100980.82;;;12.02;42.82
64115;BME280;62188;35.640;139.748;2023-01-16T06:43:18;100980.97;;;12.00;42.97
64115;BME280;62188;35.640;139.748;2023-01-16T06:45:43;100990.95;;;11.85;43.25
64115;BME280;62188;35.640;139.748;2023-01-16T06:48:09;101005.96;;;11.78;42.69
64115;BME280;62188;35.640;139.748;2023-01-16T06:50:35;101016.82;;;11.96;42.61
64115;BME280;62188;35.640;139.748;2023-01-16T06:53:01;101020.23;;;11.72;42.41
64115;BME280;62188;35.640;139.748;2023-01-16T06:55:26;101025.48;;;11.84;42.29
64115;BME280;62188;35.640;139.748;2023-01-16T06:57:52;101031.91;;;11.72;42.38
64115;BME280;62188;35.640;139.748;2023-01-16T07:00:18;101037.88;;;11.78;42.53
64115;BME280;62188;35.640;139.748;2023-01-16T07:02:43;101042.86;;;11.71;42.32
64115;BME280;62188;35.640;139.748;2023-01-16T07:05:11;101055.23;;;11.64;42.65
64115;BME280;62188;35.640;139.748;2023-01-16T07:07:35;101060.15;;;11.55;42.85
64115;BME280;62188;35.640;139.748;2023-01-16T07:10:03;101058.06;;;11.48;42.89
64115;BME280;62188;35.640;139.748;2023-01-16T07:12:26;101059.71;;;11.59;42.33
64115;BME280;62188;35.640;139.748;2023-01-16T07:14:52;101064.01;;;11.34;42.10
64115;BME280;62188;35.640;139.748;2023-01-16T07:17:17;101069.19;;;11.64;41.96
64115;BME280;62188;35.640;139.748;2023-01-16T07:19:43;101070.89;;;11.74;41.86
64115;BME280;62188;35.640;139.748;2023-01-16T07:22:11;101075.52;;;11.82;41.63
64115;BME280;62188;35.640;139.748;2023-01-16T07:24:37;101078.89;;;11.71;40.91
64115;BME280;62188;35.640;139.748;2023-01-16T07:27:02;101086.27;;;11.54;41.05
64115;BME280;62188;35.640;139.748;2023-01-16T07:29:27;101087.07;;;11.50;40.98
64115;BME280;62188;35.640;139.748;2023-01-16T07:31:52;101093.42;;;11.50;40.84
64115;BME280;62188;35.640;139.748;2023-01-16T07:34:17;101095.56;;;11.47;41.15
64115;BME280;62188;35.640;139.748;2023-01-16T07:36:43;101097.55;;;12.06;40.83
64115;BME280;62188;35.640;139.748;2023-01-16T07:39:08;101095.93;;;11.37;40.66
64115;BME280;62188;35.640;139.748;2023-01-16T07:41:34;101088.96;;;11.79;40.83
64115;BME280;62188;35.640;139.748;2023-01-16T07:44:01;101093.30;;;11.35;41.07
64115;BME280;62188;35.640;139.748;2023-01-16T07:46:25;101099.44;;;11.87;41.38
64115;BME280;62188;35.640;139.748;2023-01-16T07:48:52;101109.96;;;11.59;41.39
64115;BME280;62188;35.640;139.748;2023-01-16T07:51:17;101113.56;;;11.60;40.99
64115;BME280;62188;35.640;139.748;2023-01-16T07:53:43;101116.83;;;11.40;40.80
64115;BME280;62188;35.640;139.748;2023-01-16T07:56:09;101117.09;;;11.40;40.54
64115;BME280;62188;35.640;139.748;2023-01-16T07:58:34;101120.26;;;11.44;40.49
64115;BME280;62188;35.640;139.748;2023-01-16T08:01:00;101126.59;;;11.71;40.32
64115;BME280;62188;35.640;139.748;2023-01-16T08:03:26;101132.79;;;11.48;40.54
64115;BME280;62188;35.640;139.748;2023-01-16T08:05:55;101141.24;;;11.48;40.70
64115;BME280;62188;35.640;139.748;2023-01-16T08:08:17;101143.00;;;11.54;40.78
64115;BME280;62188;35.640;139.748;2023-01-16T08:10:42;101144.56;;;11.18;40.91
64115;BME280;62188;35.640;139.748;2023-01-16T08:13:08;101154.47;;;11.30;41.16
64115;BME280;62188;35.640;139.748;2023-01-16T08:15:33;101157.79;;;11.37;40.92
64115;BME280;62188;35.640;139.748;2023-01-16T08:17:59;101159.57;;;11.45;40.55
64115;BME280;62188;35.640;139.748;2023-01-16T08:20:25;101168.82;;;11.50;40.80
64115;BME280;62188;35.640;139.748;2023-01-16T08:22:51;101177.43;;;11.49;40.68
64115;BME280;62188;35.640;139.748;2023-01-16T08:25:18;101176.68;;;11.77;40.55
64115;BME280;62188;35.640;139.748;2023-01-16T08:27:42;101183.92;;;11.40;40.45
64115;BME280;62188;35.640;139.748;2023-01-16T08:30:09;101190.28;;;11.44;40.36
64115;BME280;62188;35.640;139.748;2023-01-16T08:32:34;101205.26;;;11.37;40.02
64115;BME280;62188;35.640;139.748;2023-01-16T08:34:59;101207.16;;;11.16;39.17
64115;BME280;62188;35.640;139.748;2023-01-16T08:37:25;101214.40;;;11.33;38.86
64115;BME280;62188;35.640;139.748;2023-01-16T08:39:51;101220.24;;;11.39;38.78
64115;BME280;62188;35.640;139.748;2023-01-16T08:42:17;101222.35;;;11.39;38.25
64115;BME280;62188;35.640;139.748;2023-01-16T08:44:42;101231.89;;;11.12;38.04
64115;BME280;62188;35.640;139.748;2023-01-16T08:47:13;101237.89;;;11.39;37.93
64115;BME280;62188;35.640;139.748;2023-01-16T08:49:33;101241.30;;;11.21;37.95
64115;BME280;62188;35.640;139.748;2023-01-16T08:52:00;101247.03;;;11.44;37.86
64115;BME280;62188;35.640;139.748;2023-01-16T08:54:25;101249.14;;;11.20;37.57
64115;BME280;62188;35.640;139.748;2023-01-16T08:56:50;101250.68;;;11.15;38.12
64115;BME280;62188;35.640;139.748;2023-01-16T08:59:16;101252.67;;;11.41;38.15
64115;BME280;62188;35.640;139.748;2023-01-16T09:01:42;101261.52;;;11.30;38.02
64115;BME280;62188;35.640;139.748;2023-01-16T09:04:07;101266.50;;;11.43;37.96
64115;BME280;62188;35.640;139.748;2023-01-16T09:06:34;101266.28;;;11.46;37.29
64115;BME280;62188;35.640;139.748;2023-01-16T09:08:59;101264.80;;;11.52;37.01
64115;BME280;62188;35.640;139.748;2023-01-16T09:11:25;101265.84;;;11.18;36.90
64115;BME280;62188;35.640;139.748;2023-01-16T09:13:50;101263.40;;;11.50;37.07
64115;BME280;62188;35.640;139.748;2023-01-16T09:16:16;101273.38;;;11.75;36.97
64115;BME280;62188;35.640;139.748;2023-01-16T09:18:42;101278.74;;;11.25;36.90
64115;BME280;62188;35.640;139.748;2023-01-16T09:21:08;101279.59;;;11.22;36.96
64115;BME280;62188;35.640;139.748;2023-01-16T09:23:33;101281.54;;;11.42;36.98
64115;BME280;62188;35.640;139.748;2023-01-16T09:25:59;101284.98;;;11.31;36.43
64115;BME280;62188;35.640;139.748;2023-01-16T09:28:25;101284.05;;;11.53;36.61
64115;BME280;62188;35.640;139.748;2023-01-16T09:30:52;101295.75;;;11.29;36.75
64115;BME280;62188;35.640;139.748;2023-01-16T09:33:17;101302.36;;;11.14;36.81
64115;BME280;62188;35.640;139.748;2023-01-16T09:35:43;101313.58;;;11.45;36.75
64115;BME280;62188;35.640;139.748;2023-01-16T09:38:08;101317.45;;;11.22;36.74
64115;BME280;62188;35.640;139.748;2023-01-16T09:40:33;101312.15;;;11.18;36.64
64115;BME280;62188;35.640;139.748;2023-01-16T09:43:08;101319.62;;;11.21;36.84
64115;BME280;62188;35.640;139.748;2023-01-16T09:45:29;101322.76;;;11.19;36.60
64115;BME280;62188;35.640;139.748;2023-01-16T09:47:52;101331.46;;;11.26;36.68
64115;BME280;62188;35.640;139.748;2023-01-16T09:50:23;101344.70;;;11.60;36.44
64115;BME280;62188;35.640;139.748;2023-01-16T09:52:47;101351.32;;;11.39;36.44
64115;BME280;62188;35.640;139.748;2023-01-16T09:55:15;101350.93;;;11.50;36.56
64115;BME280;62188;35.640;139.748;2023-01-16T09:57:34;101355.90;;;11.61;36.23
64115;BME280;62188;35.640;139.748;2023-01-16T09:59:58;101362.12;;;11.76;36.10
64115;BME280;62188;35.640;139.748;2023-01-16T10:02:26;101368.69;;;11.62;36.28
64115;BME280;62188;35.640;139.748;2023-01-16T10:04:51;101379.56;;;11.73;35.74
64115;BME280;62188;35.640;139.748;2023-01-16T10:07:29;101387.12;;;12.04;35.50
64115;BME280;62188;35.640;139.748;2023-01-16T10:09:45;101389.77;;;11.87;35.40
64115;BME280;62188;35.640;139.748;2023-01-16T10:12:11;101384.97;;;11.82;34.98
64115;BME280;62188;35.640;139.748;2023-01-16T10:14:45;101386.29;;;11.64;35.16
64115;BME280;62188;35.640;139.748;2023-01-16T10:17:09;101386.78;;;11.72;35.54
64115;BME280;62188;35.640;139.748;2023-01-16T10:19:35;101385.38;;;11.77;35.18
64115;BME280;62188;35.640;139.748;2023-01-16T10:22:01;101392.14;;;11.75;34.49
64115;BME280;62188;35.640;139.748;2023-01-16T10:24:21;101396.41;;;11.75;34.52
64115;BME280;62188;35.640;139.748;2023-01-16T10:26:49;101392.20;;;11.73;33.86
64115;BME280;62188;35.640;139.748;2023-01-16T10:29:17;101390.37;;;11.74;33.02
64115;BME280;62188;35.640;139.748;2023-01-16T10:31:37;101406.38;;;11.84;32.21
64115;BME280;62188;35.640;139.748;2023-01-16T10:34:03;101401.13;;;11.64;32.22
64115;BME280;62188;35.640;139.748;2023-01-16T10:36:27;101407.88;;;11.80;32.03
64115;BME280;62188;35.640;139.748;2023-01-16T10:38:51;101409.88;;;11.87;32.18
64115;BME280;62188;35.640;139.748;2023-01-16T10:41:18;101412.64;;;11.91;32.42
64115;BME280;62188;35.640;139.748;2023-01-16T10:43:41;101406.35;;;11.84;31.32
64115;BME280;62188;35.640;139.748;2023-01-16T10:46:15;101412.83;;;11.76;30.90
64115;BME280;62188;35.640;139.748;2023-01-16T10:48:32;101411.91;;;11.76;30.70
64115;BME280;62188;35.640;139.748;2023-01-16T10:50:58;101412.16;;;11.80;30.73
64115;BME280;62188;35.640;139.748;2023-01-16T10:53:24;101420.18;;;11.82;30.68
64115;BME280;62188;35.640;139.748;2023-01-16T10:55:50;101422.01;;;11.82;30.16
64115;BME280;62188;35.640;139.748;2023-01-16T10:58:24;101417.09;;;11.66;29.24
64115;BME280;62188;35.640;139.748;2023-01-16T11:00:42;101432.37;;;11.60;29.53
64115;BME280;62188;35.640;139.748;2023-01-16T11:03:14;101441.12;;;11.48;29.75
64115;BME280;62188;35.640;139.748;2023-01-16T11:05:34;101437.14;;;11.41;29.75
64115;BME280;62188;35.640;139.748;2023-01-16T11:08:05;101441.73;;;11.67;30.51
64115;BME280;62188;35.640;139.748;2023-01-16T11:10:25;101442.92;;;11.18;30.36
64115;BME280;62188;35.640;139.748;2023-01-16T11:12:50;101451.09;;;11.98;31.35
64115;BME280;62188;35.640;139.748;2023-01-16T11:15:19;101459.33;;;11.56;33.92
64115;BME280;62188;35.640;139.748;2023-01-16T11:17:39;101460.07;;;11.72;35.51
64115;BME280;62188;35.640;139.748;2023-01-16T11:20:05;101464.24;;;11.93;36.61
64115;BME280;62188;35.640;139.748;2023-01-16T11:22:30;101467.16;;;11.70;35.75
64115;BME280;62188;35.640;139.748;2023-01-16T11:24:58;101473.31;;;11.97;34.82
64115;BME280;62188;35.640;139.748;2023-01-16T11:27:26;101478.84;;;12.08;33.46
64115;BME280;62188;35.640;139.748;2023-01-16T11:29:51;101492.91;;;12.05;35.45
64115;BME280;62188;35.640;139.748;2023-01-16T11:32:13;101487.62;;;12.13;34.14
64115;BME280;62188;35.640;139.748;2023-01-16T11:34:43;101495.19;;;11.91;34.16
64115;BME280;62188;35.640;139.748;2023-01-16T11:37:05;101498.62;;;11.92;34.47
64115;BME280;62188;35.640;139.748;2023-01-16T11:39:30;101497.45;;;12.09;34.88
64115;BME280;62188;35.640;139.748;2023-01-16T11:41:57;101496.69;;;12.06;35.27
64115;BME280;62188;35.640;139.748;2023-01-16T11:44:23;101489.76;;;12.35;34.52
64115;BME280;62188;35.640;139.748;2023-01-16T11:46:46;101494.46;;;11.92;34.95
64115;BME280;62188;35.640;139.748;2023-01-16T11:49:18;101503.04;;;12.14;33.11
64115;BME280;62188;35.640;139.748;2023-01-16T11:51:39;101499.48;;;11.94;34.44
64115;BME280;62188;35.640;139.748;2023-01-16T11:54:03;101510.87;;;12.08;32.66
64115;BME280;62188;35.640;139.748;2023-01-16T11:58:59;101525.07;;;11.84;30.40
64115;BME280;62188;35.640;139.748;2023-01-16T12:01:24;101533.35;;;12.16;29.69
64115;BME280;62188;35.640;139.748;2023-01-16T12:06:17;101529.74;;;12.03;29.22
64115;BME280;62188;35.640;139.748;2023-01-16T12:08:50;101530.86;;;12.15;29.26
64115;BME280;62188;35.640;139.748;2023-01-16T12:11:05;101535.52;;;12.25;28.99
64115;BME280;62188;35.640;139.748;2023-01-16T12:13:28;101546.12;;;12.01;26.36
64115;BME280;62188;35.640;139.748;2023-01-16T12:16:01;101540.80;;;11.92;26.63
64115;BME280;62188;35.640;139.748;2023-01-16T12:18:20;101536.37;;;12.07;27.23
64115;BME280;62188;35.640;139.748;2023-01-16T12:20:50;101538.49;;;11.85;26.39
64115;BME280;62188;35.640;139.748;2023-01-16T12:25:39;101529.41;;;11.57;26.85
64115;BME280;62188;35.640;139.748;2023-01-16T12:28:06;101536.93;;;11.65;26.61
64115;BME280;62188;35.640;139.748;2023-01-16T12:30:32;101545.93;;;11.57;26.03
64115;BME280;62188;35.640;139.748;2023-01-16T12:32:57;101553.22;;;11.62;26.41
64115;BME280;62188;35.640;139.748;2023-01-16T12:35:26;101556.17;;;11.52;25.88
64115;BME280;62188;35.640;139.748;2023-01-16T12:37:51;101559.82;;;11.49;25.93